sensor_id;sensor_type;location;lat;lon;timestamp;P1;durP1;ratioP1;P2;durP2;ratioP2
65753;SDS011;69207;47.502;18.940;2023-04-23T00:00:55;11.07;;;6.37;;
65753;SDS011;69207;47.502;18.940;2023-04-23T00:02:03;11.07;;;6.10;;
65753;SDS011;69207;47.502;18.940;2023-04-23T00:03:08;12.82;;;7.05;;
65753;SDS011;69207;47.502;18.940;2023-04-23T00:04:12;11.45;;;7.40;;
65753;SDS011;69207;47.502;18.940;2023-04-23T00:05:20;10.90;;;6.80;;
65753;SDS011;69207;47.502;18.940;2023-04-23T00:06:27;13.88;;;6.90;;
65753;SDS011;69207;47.502;18.940;2023-04-23T00:07:32;14.98;;;6.57;;
65753;SDS011;69207;47.502;18.940;2023-04-23T00:08:39;10.85;;;7.15;;
65753;SDS011;69207;47.502;18.940;2023-04-23T00:09:43;11.23;;;7.10;;
65753;SDS011;69207;47.502;18.940;2023-04-23T00:10:48;13.00;;;7.18;;
65753;SDS011;69207;47.502;18.940;2023-04-23T00:11:51;11.55;;;7.28;;
65753;SDS011;69207;47.502;18.940;2023-04-23T00:12:54;11.98;;;7.28;;
65753;SDS011;69207;47.502;18.940;2023-04-23T00:14:00;12.40;;;6.53;;
65753;SDS011;69207;47.502;18.940;2023-04-23T00:15:03;12.80;;;6.78;;
65753;SDS011;69207;47.502;18.940;2023-04-23T00:16:09;10.60;;;6.95;;
65753;SDS011;69207;47.502;18.940;2023-04-23T00:17:12;12.20;;;6.60;;
65753;SDS011;69207;47.502;18.940;2023-04-23T00:18:15;12.50;;;6.30;;
65753;SDS011;69207;47.502;18.940;2023-04-23T00:19:18;12.35;;;6.57;;
65753;SDS011;69207;47.502;18.940;2023-04-23T00:20:22;10.00;;;5.57;;
65753;SDS011;69207;47.502;18.940;2023-04-23T00:21:25;11.35;;;6.70;;
65753;SDS011;69207;47.502;18.940;2023-04-23T00:22:29;11.15;;;6.30;;
65753;SDS011;69207;47.502;18.940;2023-04-23T00:23:32;8.77;;;5.93;;
65753;SDS011;69207;47.502;18.940;2023-04-23T00:24:35;12.80;;;5.43;;
65753;SDS011;69207;47.502;18.940;2023-04-23T00:25:40;10.10;;;6.53;;
65753;SDS011;69207;47.502;18.940;2023-04-23T00:26:43;7.72;;;5.95;;
65753;SDS011;69207;47.502;18.940;2023-04-23T00:27:47;8.98;;;5.50;;
65753;SDS011;69207;47.502;18.940;2023-04-23T00:28:50;9.98;;;5.70;;
65753;SDS011;69207;47.502;18.940;2023-04-23T00:29:53;8.85;;;5.55;;
65753;SDS011;69207;47.502;18.940;2023-04-23T00:30:56;9.20;;;5.68;;
65753;SDS011;69207;47.502;18.940;2023-04-23T00:31:59;11.80;;;6.00;;
65753;SDS011;69207;47.502;18.940;2023-04-23T00:33:03;9.30;;;5.80;;
65753;SDS011;69207;47.502;18.940;2023-04-23T00:34:06;9.20;;;5.53;;
65753;SDS011;69207;47.502;18.940;2023-04-23T00:35:09;11.93;;;5.47;;
65753;SDS011;69207;47.502;18.940;2023-04-23T00:36:12;7.45;;;4.93;;
65753;SDS011;69207;47.502;18.940;2023-04-23T00:37:15;8.80;;;5.80;;
65753;SDS011;69207;47.502;18.940;2023-04-23T00:38:18;12.07;;;6.00;;
65753;SDS011;69207;47.502;18.940;2023-04-23T00:39:22;12.43;;;5.45;;
65753;SDS011;69207;47.502;18.940;2023-04-23T00:40:25;13.05;;;5.60;;
65753;SDS011;69207;47.502;18.940;2023-04-23T00:41:28;14.65;;;5.72;;
65753;SDS011;69207;47.502;18.940;2023-04-23T00:42:31;8.05;;;5.15;;
65753;SDS011;69207;47.502;18.940;2023-04-23T00:43:35;9.80;;;5.12;;
65753;SDS011;69207;47.502;18.940;2023-04-23T00:44:39;11.95;;;5.65;;
65753;SDS011;69207;47.502;18.940;2023-04-23T00:45:46;6.62;;;4.85;;
65753;SDS011;69207;47.502;18.940;2023-04-23T00:46:49;6.62;;;5.30;;
65753;SDS011;69207;47.502;18.940;2023-04-23T00:47:52;8.85;;;5.50;;
65753;SDS011;69207;47.502;18.940;2023-04-23T00:48:56;10.50;;;5.43;;
65753;SDS011;69207;47.502;18.940;2023-04-23T00:49:59;9.60;;;5.57;;
65753;SDS011;69207;47.502;18.940;2023-04-23T00:51:04;8.52;;;5.07;;
65753;SDS011;69207;47.502;18.940;2023-04-23T00:52:07;12.00;;;5.30;;
65753;SDS011;69207;47.502;18.940;2023-04-23T00:53:10;6.87;;;4.85;;
65753;SDS011;69207;47.502;18.940;2023-04-23T00:54:13;7.07;;;4.68;;
65753;SDS011;69207;47.502;18.940;2023-04-23T00:55:16;7.55;;;4.97;;
65753;SDS011;69207;47.502;18.940;2023-04-23T00:56:22;8.70;;;5.10;;
65753;SDS011;69207;47.502;18.940;2023-04-23T00:57:27;6.22;;;4.60;;
65753;SDS011;69207;47.502;18.940;2023-04-23T00:58:30;9.38;;;5.20;;
65753;SDS011;69207;47.502;18.940;2023-04-23T00:59:33;9.13;;;5.03;;
65753;SDS011;69207;47.502;18.940;2023-04-23T01:00:38;10.93;;;5.35;;
65753;SDS011;69207;47.502;18.940;2023-04-23T01:01:47;7.75;;;4.55;;
65753;SDS011;69207;47.502;18.940;2023-04-23T01:02:51;9.15;;;4.93;;
65753;SDS011;69207;47.502;18.940;2023-04-23T01:03:55;10.27;;;4.80;;
65753;SDS011;69207;47.502;18.940;2023-04-23T01:04:59;7.40;;;4.53;;
65753;SDS011;69207;47.502;18.940;2023-04-23T01:06:05;9.68;;;4.80;;
65753;SDS011;69207;47.502;18.940;2023-04-23T01:07:09;7.70;;;4.20;;
65753;SDS011;69207;47.502;18.940;2023-04-23T01:08:15;7.87;;;4.10;;
65753;SDS011;69207;47.502;18.940;2023-04-23T01:09:19;7.43;;;4.22;;
65753;SDS011;69207;47.502;18.940;2023-04-23T01:10:23;7.97;;;4.50;;
65753;SDS011;69207;47.502;18.940;2023-04-23T01:11:26;8.05;;;4.43;;
65753;SDS011;69207;47.502;18.940;2023-04-23T01:12:30;6.45;;;4.65;;
65753;SDS011;69207;47.502;18.940;2023-04-23T01:13:33;7.60;;;4.47;;
65753;SDS011;69207;47.502;18.940;2023-04-23T01:14:37;5.57;;;4.15;;
65753;SDS011;69207;47.502;18.940;2023-04-23T01:15:41;5.75;;;4.22;;
65753;SDS011;69207;47.502;18.940;2023-04-23T01:16:46;5.32;;;3.97;;
65753;SDS011;69207;47.502;18.940;2023-04-23T01:17:49;7.40;;;4.45;;
65753;SDS011;69207;47.502;18.940;2023-04-23T01:18:52;8.90;;;4.62;;
65753;SDS011;69207;47.502;18.940;2023-04-23T01:19:55;7.30;;;4.75;;
65753;SDS011;69207;47.502;18.940;2023-04-23T01:20:59;8.07;;;4.72;;
65753;SDS011;69207;47.502;18.940;2023-04-23T01:22:07;5.37;;;3.97;;
65753;SDS011;69207;47.502;18.940;2023-04-23T01:23:11;5.45;;;4.18;;
65753;SDS011;69207;47.502;18.940;2023-04-23T01:24:14;7.70;;;4.15;;
65753;SDS011;69207;47.502;18.940;2023-04-23T01:25:17;5.57;;;4.10;;
65753;SDS011;69207;47.502;18.940;2023-04-23T01:26:21;6.22;;;4.28;;
65753;SDS011;69207;47.502;18.940;2023-04-23T01:27:26;9.27;;;4.25;;
65753;SDS011;69207;47.502;18.940;2023-04-23T01:28:29;6.95;;;4.25;;
65753;SDS011;69207;47.502;18.940;2023-04-23T01:29:32;10.82;;;4.20;;
65753;SDS011;69207;47.502;18.940;2023-04-23T01:30:37;4.50;;;3.85;;
65753;SDS011;69207;47.502;18.940;2023-04-23T01:31:43;14.45;;;5.25;;
65753;SDS011;69207;47.502;18.940;2023-04-23T01:32:46;9.18;;;4.40;;
65753;SDS011;69207;47.502;18.940;2023-04-23T01:33:50;5.62;;;3.95;;
65753;SDS011;69207;47.502;18.940;2023-04-23T01:34:55;7.30;;;4.28;;
65753;SDS011;69207;47.502;18.940;2023-04-23T01:35:58;7.32;;;4.18;;
65753;SDS011;69207;47.502;18.940;2023-04-23T01:37:02;7.03;;;4.37;;
65753;SDS011;69207;47.502;18.940;2023-04-23T01:38:06;10.27;;;4.47;;
65753;SDS011;69207;47.502;18.940;2023-04-23T01:39:11;6.50;;;4.37;;
65753;SDS011;69207;47.502;18.940;2023-04-23T01:40:14;6.70;;;4.00;;
65753;SDS011;69207;47.502;18.940;2023-04-23T01:41:18;7.60;;;3.70;;
65753;SDS011;69207;47.502;18.940;2023-04-23T01:42:24;6.80;;;4.47;;
65753;SDS011;69207;47.502;18.940;2023-04-23T01:43:27;5.93;;;4.00;;
65753;SDS011;69207;47.502;18.940;2023-04-23T01:44:30;6.72;;;4.15;;
65753;SDS011;69207;47.502;18.940;2023-04-23T01:45:33;4.78;;;3.58;;
65753;SDS011;69207;47.502;18.940;2023-04-23T01:46:36;7.62;;;4.50;;
65753;SDS011;69207;47.502;18.940;2023-04-23T01:47:39;6.57;;;4.57;;
65753;SDS011;69207;47.502;18.940;2023-04-23T01:48:44;5.57;;;3.95;;
65753;SDS011;69207;47.502;18.940;2023-04-23T01:49:47;5.80;;;4.22;;
65753;SDS011;69207;47.502;18.940;2023-04-23T01:50:51;6.43;;;4.28;;
65753;SDS011;69207;47.502;18.940;2023-04-23T01:51:56;5.43;;;4.10;;
65753;SDS011;69207;47.502;18.940;2023-04-23T01:52:59;8.15;;;4.47;;
65753;SDS011;69207;47.502;18.940;2023-04-23T01:54:02;6.32;;;4.57;;
65753;SDS011;69207;47.502;18.940;2023-04-23T01:55:05;6.85;;;4.35;;
65753;SDS011;69207;47.502;18.940;2023-04-23T01:56:08;6.80;;;4.18;;
65753;SDS011;69207;47.502;18.940;2023-04-23T01:57:12;9.00;;;4.43;;
65753;SDS011;69207;47.502;18.940;2023-04-23T01:58:15;6.47;;;4.07;;
65753;SDS011;69207;47.502;18.940;2023-04-23T01:59:19;7.28;;;4.03;;
65753;SDS011;69207;47.502;18.940;2023-04-23T02:00:23;10.55;;;4.47;;
65753;SDS011;69207;47.502;18.940;2023-04-23T02:01:39;7.28;;;4.37;;
65753;SDS011;69207;47.502;18.940;2023-04-23T02:02:49;9.05;;;4.68;;
65753;SDS011;69207;47.502;18.940;2023-04-23T02:03:55;5.40;;;4.35;;
65753;SDS011;69207;47.502;18.940;2023-04-23T02:05:00;8.55;;;4.37;;
65753;SDS011;69207;47.502;18.940;2023-04-23T02:06:07;6.82;;;4.15;;
65753;SDS011;69207;47.502;18.940;2023-04-23T02:07:10;7.00;;;4.75;;
65753;SDS011;69207;47.502;18.940;2023-04-23T02:08:13;9.02;;;4.47;;
65753;SDS011;69207;47.502;18.940;2023-04-23T02:09:16;6.90;;;3.78;;
65753;SDS011;69207;47.502;18.940;2023-04-23T02:10:20;10.02;;;4.50;;
65753;SDS011;69207;47.502;18.940;2023-04-23T02:11:23;6.87;;;4.05;;
65753;SDS011;69207;47.502;18.940;2023-04-23T02:12:26;6.90;;;4.07;;
65753;SDS011;69207;47.502;18.940;2023-04-23T02:13:29;5.90;;;4.28;;
65753;SDS011;69207;47.502;18.940;2023-04-23T02:14:32;7.25;;;4.35;;
65753;SDS011;69207;47.502;18.940;2023-04-23T02:15:35;8.27;;;4.50;;
65753;SDS011;69207;47.502;18.940;2023-04-23T02:16:39;5.80;;;4.22;;
65753;SDS011;69207;47.502;18.940;2023-04-23T02:17:42;7.40;;;3.90;;
65753;SDS011;69207;47.502;18.940;2023-04-23T02:18:45;5.53;;;4.03;;
65753;SDS011;69207;47.502;18.940;2023-04-23T02:19:48;6.40;;;4.03;;
65753;SDS011;69207;47.502;18.940;2023-04-23T02:20:52;7.93;;;3.97;;
65753;SDS011;69207;47.502;18.940;2023-04-23T02:21:55;6.57;;;4.68;;
65753;SDS011;69207;47.502;18.940;2023-04-23T02:22:58;6.22;;;4.28;;
65753;SDS011;69207;47.502;18.940;2023-04-23T02:24:01;6.65;;;4.70;;
65753;SDS011;69207;47.502;18.940;2023-04-23T02:25:07;7.53;;;4.57;;
65753;SDS011;69207;47.502;18.940;2023-04-23T02:26:10;5.90;;;3.90;;
65753;SDS011;69207;47.502;18.940;2023-04-23T02:27:13;9.07;;;4.82;;
65753;SDS011;69207;47.502;18.940;2023-04-23T02:28:16;6.12;;;4.15;;
65753;SDS011;69207;47.502;18.940;2023-04-23T02:29:19;5.25;;;4.07;;
65753;SDS011;69207;47.502;18.940;2023-04-23T02:30:23;6.68;;;4.28;;
65753;SDS011;69207;47.502;18.940;2023-04-23T02:31:27;6.68;;;4.40;;
65753;SDS011;69207;47.502;18.940;2023-04-23T02:32:30;8.98;;;4.15;;
65753;SDS011;69207;47.502;18.940;2023-04-23T02:33:33;6.25;;;4.50;;
65753;SDS011;69207;47.502;18.940;2023-04-23T02:34:36;5.85;;;4.12;;
65753;SDS011;69207;47.502;18.940;2023-04-23T02:35:39;5.47;;;4.20;;
65753;SDS011;69207;47.502;18.940;2023-04-23T02:36:42;5.50;;;4.35;;
65753;SDS011;69207;47.502;18.940;2023-04-23T02:37:46;6.28;;;4.37;;
65753;SDS011;69207;47.502;18.940;2023-04-23T02:38:48;8.77;;;4.30;;
65753;SDS011;69207;47.502;18.940;2023-04-23T02:39:52;6.87;;;5.03;;
65753;SDS011;69207;47.502;18.940;2023-04-23T02:40:55;6.70;;;4.43;;
65753;SDS011;69207;47.502;18.940;2023-04-23T02:41:58;6.87;;;4.43;;
65753;SDS011;69207;47.502;18.940;2023-04-23T02:43:03;5.93;;;3.92;;
65753;SDS011;69207;47.502;18.940;2023-04-23T02:44:06;6.57;;;4.30;;
65753;SDS011;69207;47.502;18.940;2023-04-23T02:45:09;7.20;;;4.62;;
65753;SDS011;69207;47.502;18.940;2023-04-23T02:46:12;5.00;;;4.20;;
65753;SDS011;69207;47.502;18.940;2023-04-23T02:47:15;9.77;;;4.62;;
65753;SDS011;69207;47.502;18.940;2023-04-23T02:48:18;8.70;;;4.55;;
65753;SDS011;69207;47.502;18.940;2023-04-23T02:49:23;7.37;;;4.50;;
65753;SDS011;69207;47.502;18.940;2023-04-23T02:50:26;6.50;;;4.57;;
65753;SDS011;69207;47.502;18.940;2023-04-23T02:51:29;5.72;;;4.35;;
65753;SDS011;69207;47.502;18.940;2023-04-23T02:52:33;6.47;;;4.60;;
65753;SDS011;69207;47.502;18.940;2023-04-23T02:53:36;8.75;;;4.55;;
65753;SDS011;69207;47.502;18.940;2023-04-23T02:54:44;9.75;;;4.43;;
65753;SDS011;69207;47.502;18.940;2023-04-23T02:55:47;10.48;;;4.95;;
65753;SDS011;69207;47.502;18.940;2023-04-23T02:56:50;5.68;;;4.30;;
65753;SDS011;69207;47.502;18.940;2023-04-23T02:57:53;7.60;;;4.57;;
65753;SDS011;69207;47.502;18.940;2023-04-23T02:58:56;4.78;;;4.22;;
65753;SDS011;69207;47.502;18.940;2023-04-23T02:59:59;7.40;;;4.82;;
65753;SDS011;69207;47.502;18.940;2023-04-23T03:01:03;6.37;;;4.35;;
65753;SDS011;69207;47.502;18.940;2023-04-23T03:02:06;9.55;;;4.62;;
65753;SDS011;69207;47.502;18.940;2023-04-23T03:03:09;6.57;;;4.10;;
65753;SDS011;69207;47.502;18.940;2023-04-23T03:04:14;7.00;;;4.20;;
65753;SDS011;69207;47.502;18.940;2023-04-23T03:05:17;6.45;;;4.70;;
65753;SDS011;69207;47.502;18.940;2023-04-23T03:06:20;8.70;;;4.37;;
65753;SDS011;69207;47.502;18.940;2023-04-23T03:07:24;7.62;;;4.53;;
65753;SDS011;69207;47.502;18.940;2023-04-23T03:08:27;7.30;;;4.10;;
65753;SDS011;69207;47.502;18.940;2023-04-23T03:09:30;7.55;;;4.70;;
65753;SDS011;69207;47.502;18.940;2023-04-23T03:10:33;7.37;;;4.53;;
65753;SDS011;69207;47.502;18.940;2023-04-23T03:11:36;8.93;;;4.60;;
65753;SDS011;69207;47.502;18.940;2023-04-23T03:12:39;6.35;;;4.15;;
65753;SDS011;69207;47.502;18.940;2023-04-23T03:13:42;7.70;;;4.20;;
65753;SDS011;69207;47.502;18.940;2023-04-23T03:14:45;6.22;;;4.60;;
65753;SDS011;69207;47.502;18.940;2023-04-23T03:15:48;8.82;;;4.60;;
65753;SDS011;69207;47.502;18.940;2023-04-23T03:16:52;7.32;;;4.18;;
65753;SDS011;69207;47.502;18.940;2023-04-23T03:17:55;6.82;;;4.03;;
65753;SDS011;69207;47.502;18.940;2023-04-23T03:18:58;6.97;;;4.20;;
65753;SDS011;69207;47.502;18.940;2023-04-23T03:20:03;8.93;;;4.43;;
65753;SDS011;69207;47.502;18.940;2023-04-23T03:21:08;7.62;;;4.10;;
65753;SDS011;69207;47.502;18.940;2023-04-23T03:22:11;8.35;;;4.20;;
65753;SDS011;69207;47.502;18.940;2023-04-23T03:23:14;4.85;;;3.72;;
65753;SDS011;69207;47.502;18.940;2023-04-23T03:24:17;9.15;;;4.00;;
65753;SDS011;69207;47.502;18.940;2023-04-23T03:25:20;5.37;;;3.92;;
65753;SDS011;69207;47.502;18.940;2023-04-23T03:26:26;7.18;;;4.07;;
65753;SDS011;69207;47.502;18.940;2023-04-23T03:27:28;5.15;;;4.30;;
65753;SDS011;69207;47.502;18.940;2023-04-23T03:28:32;6.35;;;4.32;;
65753;SDS011;69207;47.502;18.940;2023-04-23T03:29:35;5.45;;;4.00;;
65753;SDS011;69207;47.502;18.940;2023-04-23T03:30:38;4.25;;;3.62;;
65753;SDS011;69207;47.502;18.940;2023-04-23T03:31:41;5.55;;;4.28;;
65753;SDS011;69207;47.502;18.940;2023-04-23T03:32:44;5.57;;;3.85;;
65753;SDS011;69207;47.502;18.940;2023-04-23T03:33:47;6.53;;;4.07;;
65753;SDS011;69207;47.502;18.940;2023-04-23T03:34:50;6.40;;;4.22;;
65753;SDS011;69207;47.502;18.940;2023-04-23T03:35:53;10.48;;;4.00;;
65753;SDS011;69207;47.502;18.940;2023-04-23T03:36:56;5.85;;;4.40;;
65753;SDS011;69207;47.502;18.940;2023-04-23T03:37:59;7.07;;;4.12;;
65753;SDS011;69207;47.502;18.940;2023-04-23T03:39:02;6.57;;;3.78;;
65753;SDS011;69207;47.502;18.940;2023-04-23T03:40:06;6.35;;;4.12;;
65753;SDS011;69207;47.502;18.940;2023-04-23T03:41:10;4.82;;;3.80;;
65753;SDS011;69207;47.502;18.940;2023-04-23T03:42:13;6.53;;;4.20;;
65753;SDS011;69207;47.502;18.940;2023-04-23T03:43:16;5.82;;;3.67;;
65753;SDS011;69207;47.502;18.940;2023-04-23T03:44:19;7.00;;;4.07;;
65753;SDS011;69207;47.502;18.940;2023-04-23T03:45:22;10.15;;;4.03;;
65753;SDS011;69207;47.502;18.940;2023-04-23T03:46:25;6.75;;;4.32;;
65753;SDS011;69207;47.502;18.940;2023-04-23T03:47:28;5.93;;;4.03;;
65753;SDS011;69207;47.502;18.940;2023-04-23T03:48:32;5.22;;;3.75;;
65753;SDS011;69207;47.502;18.940;2023-04-23T03:49:35;4.55;;;3.47;;
65753;SDS011;69207;47.502;18.940;2023-04-23T03:50:38;8.60;;;4.10;;
65753;SDS011;69207;47.502;18.940;2023-04-23T03:51:42;6.00;;;3.87;;
65753;SDS011;69207;47.502;18.940;2023-04-23T03:52:45;5.57;;;3.75;;
65753;SDS011;69207;47.502;18.940;2023-04-23T03:53:48;8.45;;;4.37;;
65753;SDS011;69207;47.502;18.940;2023-04-23T03:54:51;6.20;;;3.70;;
65753;SDS011;69207;47.502;18.940;2023-04-23T03:55:54;5.43;;;3.87;;
65753;SDS011;69207;47.502;18.940;2023-04-23T03:56:58;5.80;;;4.12;;
65753;SDS011;69207;47.502;18.940;2023-04-23T03:58:01;5.20;;;3.67;;
65753;SDS011;69207;47.502;18.940;2023-04-23T03:59:04;5.45;;;4.03;;
65753;SDS011;69207;47.502;18.940;2023-04-23T04:00:07;7.10;;;4.30;;
65753;SDS011;69207;47.502;18.940;2023-04-23T04:01:14;6.12;;;3.90;;
65753;SDS011;69207;47.502;18.940;2023-04-23T04:02:18;6.12;;;4.07;;
65753;SDS011;69207;47.502;18.940;2023-04-23T04:03:22;6.32;;;3.90;;
65753;SDS011;69207;47.502;18.940;2023-04-23T04:04:25;5.43;;;3.80;;
65753;SDS011;69207;47.502;18.940;2023-04-23T04:05:30;6.95;;;3.95;;
65753;SDS011;69207;47.502;18.940;2023-04-23T04:06:33;8.63;;;3.65;;
65753;SDS011;69207;47.502;18.940;2023-04-23T04:07:36;6.57;;;3.67;;
65753;SDS011;69207;47.502;18.940;2023-04-23T04:08:39;8.95;;;4.43;;
65753;SDS011;69207;47.502;18.940;2023-04-23T04:09:42;5.55;;;3.50;;
65753;SDS011;69207;47.502;18.940;2023-04-23T04:10:45;6.62;;;4.25;;
65753;SDS011;69207;47.502;18.940;2023-04-23T04:11:48;5.95;;;4.12;;
65753;SDS011;69207;47.502;18.940;2023-04-23T04:12:54;6.07;;;4.20;;
65753;SDS011;69207;47.502;18.940;2023-04-23T04:13:57;8.05;;;3.80;;
65753;SDS011;69207;47.502;18.940;2023-04-23T04:15:01;6.20;;;4.22;;
65753;SDS011;69207;47.502;18.940;2023-04-23T04:16:05;4.97;;;3.90;;
65753;SDS011;69207;47.502;18.940;2023-04-23T04:17:08;8.23;;;4.18;;
65753;SDS011;69207;47.502;18.940;2023-04-23T04:18:11;3.97;;;3.47;;
65753;SDS011;69207;47.502;18.940;2023-04-23T04:19:13;8.05;;;3.80;;
65753;SDS011;69207;47.502;18.940;2023-04-23T04:20:17;5.55;;;3.62;;
65753;SDS011;69207;47.502;18.940;2023-04-23T04:21:20;6.68;;;3.75;;
65753;SDS011;69207;47.502;18.940;2023-04-23T04:22:23;7.15;;;4.25;;
65753;SDS011;69207;47.502;18.940;2023-04-23T04:23:26;6.07;;;4.07;;
65753;SDS011;69207;47.502;18.940;2023-04-23T04:24:30;5.25;;;3.92;;
65753;SDS011;69207;47.502;18.940;2023-04-23T04:25:33;6.18;;;3.80;;
65753;SDS011;69207;47.502;18.940;2023-04-23T04:26:41;4.50;;;3.53;;
65753;SDS011;69207;47.502;18.940;2023-04-23T04:27:45;5.22;;;4.12;;
65753;SDS011;69207;47.502;18.940;2023-04-23T04:28:49;7.87;;;4.40;;
65753;SDS011;69207;47.502;18.940;2023-04-23T04:29:52;6.70;;;3.58;;
65753;SDS011;69207;47.502;18.940;2023-04-23T04:30:56;7.85;;;3.95;;
65753;SDS011;69207;47.502;18.940;2023-04-23T04:31:59;6.10;;;3.60;;
65753;SDS011;69207;47.502;18.940;2023-04-23T04:33:04;4.57;;;3.55;;
65753;SDS011;69207;47.502;18.940;2023-04-23T04:34:07;6.37;;;3.67;;
65753;SDS011;69207;47.502;18.940;2023-04-23T04:35:12;7.20;;;3.87;;
65753;SDS011;69207;47.502;18.940;2023-04-23T04:36:16;5.68;;;3.92;;
65753;SDS011;69207;47.502;18.940;2023-04-23T04:37:19;6.78;;;4.15;;
65753;SDS011;69207;47.502;18.940;2023-04-23T04:38:22;4.75;;;3.67;;
65753;SDS011;69207;47.502;18.940;2023-04-23T04:39:25;8.20;;;3.70;;
65753;SDS011;69207;47.502;18.940;2023-04-23T04:40:28;5.85;;;3.78;;
65753;SDS011;69207;47.502;18.940;2023-04-23T04:41:32;6.68;;;3.58;;
65753;SDS011;69207;47.502;18.940;2023-04-23T04:42:35;7.68;;;4.12;;
65753;SDS011;69207;47.502;18.940;2023-04-23T04:43:39;5.35;;;3.80;;
65753;SDS011;69207;47.502;18.940;2023-04-23T04:44:42;8.32;;;4.07;;
65753;SDS011;69207;47.502;18.940;2023-04-23T04:45:45;6.30;;;3.78;;
65753;SDS011;69207;47.502;18.940;2023-04-23T04:46:49;7.85;;;3.92;;
65753;SDS011;69207;47.502;18.940;2023-04-23T04:47:53;8.50;;;4.15;;
65753;SDS011;69207;47.502;18.940;2023-04-23T04:48:56;4.90;;;3.25;;
65753;SDS011;69207;47.502;18.940;2023-04-23T04:49:59;4.57;;;3.22;;
65753;SDS011;69207;47.502;18.940;2023-04-23T04:51:02;4.97;;;3.75;;
65753;SDS011;69207;47.502;18.940;2023-04-23T04:52:05;4.80;;;3.67;;
65753;SDS011;69207;47.502;18.940;2023-04-23T04:53:08;7.03;;;4.32;;
65753;SDS011;69207;47.502;18.940;2023-04-23T04:54:11;7.53;;;3.35;;
65753;SDS011;69207;47.502;18.940;2023-04-23T04:55:14;4.80;;;3.62;;
65753;SDS011;69207;47.502;18.940;2023-04-23T04:56:17;6.85;;;3.40;;
65753;SDS011;69207;47.502;18.940;2023-04-23T04:57:20;5.53;;;3.80;;
65753;SDS011;69207;47.502;18.940;2023-04-23T04:58:24;5.97;;;4.00;;
65753;SDS011;69207;47.502;18.940;2023-04-23T04:59:27;5.95;;;3.60;;
65753;SDS011;69207;47.502;18.940;2023-04-23T05:00:30;8.38;;;3.95;;
65753;SDS011;69207;47.502;18.940;2023-04-23T05:01:33;4.40;;;3.58;;
65753;SDS011;69207;47.502;18.940;2023-04-23T05:02:38;6.25;;;3.90;;
65753;SDS011;69207;47.502;18.940;2023-04-23T05:03:42;6.00;;;3.67;;
65753;SDS011;69207;47.502;18.940;2023-04-23T05:04:45;5.10;;;3.47;;
65753;SDS011;69207;47.502;18.940;2023-04-23T05:05:48;6.25;;;4.05;;
65753;SDS011;69207;47.502;18.940;2023-04-23T05:06:52;3.97;;;3.30;;
65753;SDS011;69207;47.502;18.940;2023-04-23T05:07:55;5.18;;;3.47;;
65753;SDS011;69207;47.502;18.940;2023-04-23T05:09:00;5.20;;;3.80;;
65753;SDS011;69207;47.502;18.940;2023-04-23T05:10:04;5.25;;;3.90;;
65753;SDS011;69207;47.502;18.940;2023-04-23T05:11:07;5.32;;;3.95;;
65753;SDS011;69207;47.502;18.940;2023-04-23T05:12:11;8.27;;;3.70;;
65753;SDS011;69207;47.502;18.940;2023-04-23T05:13:14;4.15;;;3.65;;
65753;SDS011;69207;47.502;18.940;2023-04-23T05:14:17;7.18;;;3.90;;
65753;SDS011;69207;47.502;18.940;2023-04-23T05:15:20;9.48;;;3.65;;
65753;SDS011;69207;47.502;18.940;2023-04-23T05:16:23;5.12;;;3.83;;
65753;SDS011;69207;47.502;18.940;2023-04-23T05:17:26;5.82;;;3.45;;
65753;SDS011;69207;47.502;18.940;2023-04-23T05:18:29;5.93;;;3.80;;
65753;SDS011;69207;47.502;18.940;2023-04-23T05:19:32;5.55;;;3.30;;
65753;SDS011;69207;47.502;18.940;2023-04-23T05:20:36;5.25;;;4.00;;
65753;SDS011;69207;47.502;18.940;2023-04-23T05:21:39;5.93;;;3.95;;
65753;SDS011;69207;47.502;18.940;2023-04-23T05:22:43;6.10;;;3.85;;
65753;SDS011;69207;47.502;18.940;2023-04-23T05:23:45;4.90;;;4.25;;
65753;SDS011;69207;47.502;18.940;2023-04-23T05:24:48;5.57;;;3.80;;
65753;SDS011;69207;47.502;18.940;2023-04-23T05:25:51;6.62;;;3.90;;
65753;SDS011;69207;47.502;18.940;2023-04-23T05:26:57;5.57;;;3.95;;
65753;SDS011;69207;47.502;18.940;2023-04-23T05:28:00;8.45;;;3.97;;
65753;SDS011;69207;47.502;18.940;2023-04-23T05:29:03;5.62;;;3.87;;
65753;SDS011;69207;47.502;18.940;2023-04-23T05:30:07;6.00;;;4.07;;
65753;SDS011;69207;47.502;18.940;2023-04-23T05:31:12;4.12;;;3.30;;
65753;SDS011;69207;47.502;18.940;2023-04-23T05:32:15;6.45;;;3.80;;
65753;SDS011;69207;47.502;18.940;2023-04-23T05:33:19;6.03;;;3.60;;
65753;SDS011;69207;47.502;18.940;2023-04-23T05:34:26;5.95;;;3.62;;
65753;SDS011;69207;47.502;18.940;2023-04-23T05:35:29;4.93;;;3.97;;
65753;SDS011;69207;47.502;18.940;2023-04-23T05:36:33;8.30;;;3.67;;
65753;SDS011;69207;47.502;18.940;2023-04-23T05:37:36;4.75;;;3.47;;
65753;SDS011;69207;47.502;18.940;2023-04-23T05:38:39;4.47;;;3.25;;
65753;SDS011;69207;47.502;18.940;2023-04-23T05:39:43;5.03;;;3.78;;
65753;SDS011;69207;47.502;18.940;2023-04-23T05:40:45;4.87;;;3.75;;
65753;SDS011;69207;47.502;18.940;2023-04-23T05:41:49;4.32;;;3.80;;
65753;SDS011;69207;47.502;18.940;2023-04-23T05:42:52;7.00;;;4.07;;
65753;SDS011;69207;47.502;18.940;2023-04-23T05:43:55;4.15;;;3.12;;
65753;SDS011;69207;47.502;18.940;2023-04-23T05:44:58;6.60;;;3.60;;
65753;SDS011;69207;47.502;18.940;2023-04-23T05:46:00;5.87;;;3.72;;
65753;SDS011;69207;47.502;18.940;2023-04-23T05:47:06;6.80;;;4.00;;
65753;SDS011;69207;47.502;18.940;2023-04-23T05:48:10;7.75;;;4.00;;
65753;SDS011;69207;47.502;18.940;2023-04-23T05:49:13;5.87;;;4.18;;
65753;SDS011;69207;47.502;18.940;2023-04-23T05:50:16;6.75;;;3.72;;
65753;SDS011;69207;47.502;18.940;2023-04-23T05:51:20;5.03;;;3.45;;
65753;SDS011;69207;47.502;18.940;2023-04-23T05:52:24;4.32;;;3.70;;
65753;SDS011;69207;47.502;18.940;2023-04-23T05:53:27;5.47;;;4.12;;
65753;SDS011;69207;47.502;18.940;2023-04-23T05:54:30;5.75;;;4.00;;
65753;SDS011;69207;47.502;18.940;2023-04-23T05:55:33;5.95;;;3.58;;
65753;SDS011;69207;47.502;18.940;2023-04-23T05:56:36;7.75;;;3.83;;
65753;SDS011;69207;47.502;18.940;2023-04-23T05:57:39;4.35;;;3.67;;
65753;SDS011;69207;47.502;18.940;2023-04-23T05:58:42;6.37;;;3.25;;
65753;SDS011;69207;47.502;18.940;2023-04-23T05:59:45;6.18;;;4.03;;
65753;SDS011;69207;47.502;18.940;2023-04-23T06:00:48;7.10;;;4.05;;
65753;SDS011;69207;47.502;18.940;2023-04-23T06:01:51;7.55;;;4.15;;
65753;SDS011;69207;47.502;18.940;2023-04-23T06:02:54;7.03;;;4.35;;
65753;SDS011;69207;47.502;18.940;2023-04-23T06:03:57;8.88;;;4.57;;
65753;SDS011;69207;47.502;18.940;2023-04-23T06:05:02;6.97;;;4.32;;
65753;SDS011;69207;47.502;18.940;2023-04-23T06:06:06;9.25;;;4.50;;
65753;SDS011;69207;47.502;18.940;2023-04-23T06:07:09;6.65;;;4.70;;
65753;SDS011;69207;47.502;18.940;2023-04-23T06:08:13;7.22;;;4.35;;
65753;SDS011;69207;47.502;18.940;2023-04-23T06:09:16;9.70;;;4.87;;
65753;SDS011;69207;47.502;18.940;2023-04-23T06:10:20;8.63;;;4.85;;
65753;SDS011;69207;47.502;18.940;2023-04-23T06:11:23;7.25;;;4.80;;
65753;SDS011;69207;47.502;18.940;2023-04-23T06:12:26;6.10;;;4.43;;
65753;SDS011;69207;47.502;18.940;2023-04-23T06:13:29;6.25;;;4.90;;
65753;SDS011;69207;47.502;18.940;2023-04-23T06:14:32;8.15;;;5.35;;
65753;SDS011;69207;47.502;18.940;2023-04-23T06:15:35;8.20;;;5.15;;
65753;SDS011;69207;47.502;18.940;2023-04-23T06:16:39;7.87;;;4.70;;
65753;SDS011;69207;47.502;18.940;2023-04-23T06:17:41;6.53;;;4.45;;